Date,TemperatureHighF,TemperatureAvgF,TemperatureLowF,DewpointHighF,DewpointAvgF,DewpointLowF,HumidityHigh,HumidityAvg,HumidityLow,PressureMaxIn,PressureMinIn,WindSpeedMaxMPH,WindSpeedAvgMPH,GustSpeedMaxMPH,PrecipitationSumIn
2013-1-1,76,71,68,70,68,65,96,89,79,30.09,29.97,12,5,19,0.30
2013-1-2,74,71,68,70,68,66,95,90,81,30.04,29.94,9,5,14,0.27
2013-1-3,74,70,67,70,67,65,96,92,85,30.06,29.95,12,6,15,0.34
2013-1-4,72,70,68,68,66,65,94,90,82,30.09,29.97,13,9,27,0.54
2013-1-5,74,71,67,68,66,64,93,86,78,30.11,30.01,12,9,25,0.44
2013-1-7,77,73,70,68,65,62,87,76,61,30.06,29.92,12,7,21,0.03
2013-1-8,77,72,68,68,66,64,93,82,70,29.98,29.86,10,5,19,0.12
2013-1-9,76,72,69,70,67,65,93,86,76,29.98,29.87,9,6,16,0.21
2013-1-10,77,72,70,67,65,64,84,79,69,29.97,29.88,9,5,18,0.00
2013-1-11,76,72,69,68,66,64,91,82,71,29.94,29.85,7,4,13,0.02
2013-1-12,78,72,68,70,67,64,94,85,73,29.95,29.86,3,1,6,0.07
2013-1-13,81,73,66,70,66,60,89,79,62,29.95,29.88,4,1,7,0.00
2013-1-14,82,73,67,72,68,63,95,85,64,29.95,29.82,7,2,14,0.30
2013-1-15,75,71,68,67,66,64,95,83,75,29.93,29.83,6,2,9,0.00
2013-1-16,76,70,65,66,62,53,89,75,47,29.93,29.81,7,2,11,0.00
2013-1-17,74,70,66,66,63,61,90,80,69,29.90,29.80,5,2,7,0.00
2013-1-18,74,71,67,65,62,60,86,74,62,29.93,29.81,9,4,14,0.00
2013-1-19,74,71,69,62,58,55,71,63,52,30.02,29.89,10,6,15,0.00
2013-1-20,74,71,69,62,59,56,75,67,59,30.05,29.96,13,7,17,0.00
2013-1-21,75,71,69,64,61,58,80,70,60,30.10,30.01,9,6,17,0.00
2013-1-22,76,72,70,66,63,59,79,73,65,30.11,30.01,8,5,15,0.00
2013-1-23,74,71,66,68,64,59,91,81,68,30.05,29.96,9,4,14,0.04
2013-1-24,78,71,66,67,64,61,90,79,65,30.05,29.97,9,4,16,0.02
2013-1-25,80,71,64,68,64,60,89,77,62,30.05,29.94,6,2,10,0.00
2013-1-26,82,73,66,66,64,61,91,74,52,30.01,29.90,4,1,6,0.00
2013-1-27,83,74,66,68,64,59,83,70,54,29.96,29.84,6,2,11,0.00
2013-1-28,75,71,67,70,67,63,94,88,73,29.98,29.85,5,1,9,0.12
2013-1-29,74,69,67,69,66,63,94,89,82,30.00,29.90,3,0,5,0.28
2013-1-30,76,72,66,69,66,62,90,83,77,30.05,29.97,5,2,7,0.00
2013-1-31,74,72,70,70,68,66,93,88,83,30.09,30.00,9,5,17,0.10
2013-2-1,76,72,69,66,63,60,84,72,61,30.10,30.02,10,7,19,0.00
2013-2-2,77,72,68,64,61,58,78,68,58,30.12,30.01,11,6,20,0.00
2013-2-3,75,71,67,61,59,56,75,66,58,30.16,30.06,11,6,20,0.00
2013-2-4,75,70,66,66,62,57,92,77,63,30.10,30.02,11,8,20,0.18
2013-2-5,75,71,66,66,62,59,94,75,64,30.08,29.99,9,5,16,0.20
2013-2-6,74,70,67,69,66,64,93,88,81,30.07,29.98,8,5,14,0.38
2013-2-7,78,73,69,69,67,64,88,81,73,30.10,29.99,9,5,16,0.01
2013-2-8,78,73,69,68,66,64,86,79,67,30.11,30.00,7,4,15,0.00
2013-2-9,76,72,68,67,65,63,88,80,70,30.12,30.02,8,4,15,0.00
2013-2-10,76,72,67,68,65,63,92,79,70,30.17,30.05,9,6,15,0.12
2013-2-11,74,70,68,67,65,61,92,83,74,30.19,30.09,10,6,15,0.08
2013-2-12,74,70,66,64,61,56,86,73,63,30.17,30.07,9,6,14,0.00
2013-2-13,72,69,66,61,58,54,85,68,59,30.12,29.99,7,4,15,0.00
2013-2-14,75,69,65,64,61,58,87,75,66,30.09,29.98,7,4,13,0.01
2013-2-15,76,72,67,68,63,58,86,75,63,30.08,29.97,11,6,17,0.02
2013-2-16,76,71,66,66,63,61,92,75,64,30.12,30.01,11,8,17,0.11
2013-2-17,73,70,66,65,62,60,92,78,68,30.15,30.03,12,8,20,0.28
2013-2-18,75,71,65,64,62,60,91,74,61,30.14,30.02,15,9,23,0.30
2013-2-19,76,70,66,65,61,56,91,74,53,30.12,30.02,12,8,18,0.29
2013-2-20,75,71,68,66,64,62,88,78,67,30.12,30.03,12,8,19,0.09
2013-2-21,73,69,66,68,65,63,95,89,78,30.12,30.04,12,7,17,1.52
2013-2-22,75,70,67,68,66,64,95,88,79,30.10,30.00,12,8,24,0.82
2013-2-23,76,71,67,67,64,61,91,81,70,30.10,30.00,10,7,19,0.05
2013-2-24,75,70,68,66,63,61,91,77,69,30.10,29.99,10,7,18,0.09
2013-2-25,76,71,68,67,64,61,89,78,68,30.13,30.02,10,7,19,0.06
2013-2-26,76,71,67,65,63,61,89,78,67,30.15,30.05,10,7,18,0.09
2013-2-27,76,72,69,64,61,58,78,70,56,30.17,30.07,11,7,17,0.00
2013-2-28,76,72,69,63,60,56,77,66,50,30.18,30.07,10,7,18,0.00
2013-3-1,75,71,67,63,60,57,84,67,57,30.16,30.06,11,8,19,0.02
2013-3-2,77,72,69,62,59,53,76,64,47,30.17,30.04,10,7,20,0.00
2013-3-3,76,72,70,62,58,54,74,62,49,30.16,30.07,9,7,16,0.00
2013-3-4,76,72,69,62,59,55,75,65,51,30.16,30.08,9,6,15,0.00
2013-3-5,77,72,69,64,60,55,82,68,52,30.14,30.04,8,5,13,0.02
2013-3-6,76,71,66,65,63,62,91,77,64,30.12,30.02,9,5,14,0.03
2013-3-7,77,72,67,68,65,62,87,79,66,30.08,29.96,10,3,15,0.00
2013-3-8,81,72,64,68,63,59,90,75,55,30.01,29.87,7,2,11,0.00
2013-3-9,81,72,65,69,65,60,92,78,64,29.94,29.84,8,2,17,0.32
2013-3-10,80,71,67,70,65,61,91,82,66,30.00,29.86,11,4,16,0.09
2013-3-11,76,71,65,67,65,61,91,81,74,30.04,29.94,6,2,11,0.00
2013-3-12,75,71,68,67,65,62,89,81,71,30.07,29.95,7,3,11,0.00
2013-3-13,75,70,66,64,62,60,83,75,65,30.07,29.97,8,4,13,0.00
2013-3-14,77,71,67,68,63,59,84,76,66,30.06,29.94,5,2,7,0.00
2013-3-15,78,72,68,66,63,61,88,74,63,29.97,29.87,10,3,18,0.00
2013-3-16,75,70,65,64,60,57,91,72,57,29.99,29.89,8,3,16,0.02
2013-3-17,74,69,65,63,58,55,78,68,59,30.02,29.92,8,3,11,0.00
2013-3-18,74,69,64,61,59,56,80,72,61,30.02,29.92,9,3,13,0.00
2013-3-19,78,72,64,67,62,56,81,74,60,30.00,29.91,5,2,10,0.00
2013-3-20,81,73,65,68,64,59,84,73,58,30.04,29.94,4,1,6,0.00
2013-3-21,86,76,68,71,66,62,83,74,48,30.04,29.92,6,1,7,0.00
2013-3-22,78,74,69,71,68,63,88,81,70,30.02,29.90,6,1,10,0.00
2013-3-23,72,69,67,68,66,63,95,90,78,30.02,29.91,10,3,14,0.40
2013-3-24,75,72,69,70,68,65,92,87,79,30.01,29.91,8,3,14,0.02
2013-3-25,80,73,66,70,66,63,91,79,64,30.00,29.91,7,3,12,0.00
2013-3-26,80,73,68,69,66,63,86,78,65,30.03,29.92,7,3,12,0.00
2013-3-27,80,72,66,68,64,60,90,78,66,30.01,29.91,14,4,17,0.02
2013-3-28,78,72,69,68,66,64,90,81,69,30.03,29.93,9,5,18,0.11
2013-3-29,73,69,67,67,65,64,93,87,77,30.04,29.97,8,4,15,0.15
2013-3-30,77,71,66,69,65,62,92,83,71,30.04,29.95,9,2,12,0.00
2013-3-31,74,70,68,65,58,55,88,66,55,30.04,29.93,11,7,21,0.00
2013-4-1,78,70,62,61,58,55,77,66,50,30.00,29.90,10,3,13,0.00
2013-4-2,74,69,66,60,58,55,80,67,56,30.07,29.94,9,4,13,0.00
2013-4-3,78,70,65,63,60,58,81,71,57,30.07,29.97,8,4,14,0.00
2013-4-4,80,72,64,66,63,58,83,73,55,30.07,29.96,6,2,12,0.00
2013-4-5,80,74,70,69,66,63,93,77,61,30.10,29.99,9,5,15,0.28
2013-4-6,82,75,70,71,69,66,92,80,69,30.12,30.01,9,4,16,0.01
2013-4-7,80,74,70,71,67,65,85,79,71,30.16,30.06,9,4,17,0.00
2013-4-8,79,74,71,70,67,65,85,78,69,30.08,29.94,8,4,16,0.00
2013-4-9,80,74,70,69,66,64,87,76,65,30.05,29.94,11,5,16,0.00
2013-4-10,81,75,71,69,67,64,85,75,60,30.04,29.94,12,6,20,0.00
2013-4-11,82,75,69,71,67,63,87,77,66,30.02,29.91,9,4,13,0.00
2013-4-12,83,76,68,70,66,64,86,72,59,29.96,29.88,7,2,12,0.00
2013-4-13,83,75,70,71,67,63,86,75,61,29.94,29.84,6,1,12,0.00
2013-4-14,85,76,70,72,67,63,88,74,59,29.95,29.84,6,1,11,0.00
2013-4-15,86,75,68,72,68,63,88,78,62,30.03,29.90,6,1,12,0.00
2013-4-16,85,76,68,71,68,63,86,77,60,30.09,29.97,6,2,11,0.00
2013-4-17,82,75,72,70,67,65,87,76,65,30.13,30.02,9,5,20,0.00
2013-4-18,79,74,71,70,67,65,86,77,68,30.13,30.04,10,6,18,0.02
2013-4-19,78,73,70,70,67,63,92,80,69,30.09,29.98,11,6,17,0.08
2013-4-20,82,76,69,70,66,62,82,72,61,30.06,29.97,6,2,10,0.00
2013-4-21,83,75,68,71,67,63,87,77,64,30.02,29.95,7,1,10,0.00
2013-4-22,88,77,69,73,68,63,85,73,53,30.02,29.93,6,1,10,0.00
2013-4-23,85,78,68,72,69,63,86,74,60,30.04,29.95,5,1,11,0.00
2013-4-24,82,75,72,72,69,66,90,80,61,30.08,29.97,9,3,14,0.01
2013-4-25,82,76,72,69,66,62,80,72,56,30.05,29.96,9,5,17,0.00
2013-4-26,81,75,71,68,65,62,85,71,53,30.03,29.95,11,6,17,0.00
2013-4-27,84,76,68,68,64,58,78,67,50,30.03,29.92,7,3,10,0.00
2013-4-28,86,76,69,71,67,62,84,73,54,30.01,29.91,6,1,11,0.00
2013-4-29,87,76,70,72,68,64,85,76,56,29.98,29.88,6,1,11,0.00
2013-4-30,84,77,71,71,67,64,83,73,59,30.01,29.92,6,2,8,0.00
2013-5-1,83,76,71,69,67,64,84,73,58,30.06,29.97,9,4,17,0.00
2013-5-2,83,76,71,69,66,62,85,72,55,30.07,29.99,10,5,20,0.01
2013-5-3,85,76,68,67,65,61,82,68,47,30.05,29.94,7,3,12,0.00
2013-5-4,84,75,67,70,65,59,78,71,60,29.99,29.88,6,1,10,0.00
2013-5-5,85,74,69,70,67,63,91,77,57,29.93,29.83,6,2,15,0.04
2013-5-6,78,73,70,71,68,63,95,85,74,29.95,29.84,6,2,10,0.22
2013-5-7,80,75,70,69,66,62,84,75,67,29.97,29.88,5,2,10,0.00
2013-5-8,82,75,69,71,68,64,88,78,68,30.00,29.90,5,2,7,0.00
2013-5-9,81,76,70,72,69,66,91,80,71,30.06,29.94,7,2,11,0.00
2013-5-10,82,76,72,72,70,68,90,82,71,30.10,30.00,10,4,12,0.03
2013-5-11,75,72,69,72,69,67,95,91,81,30.08,30.01,9,5,13,0.32
2013-5-12,73,71,69,71,69,68,96,94,88,30.09,29.99,10,6,16,1.00
2013-5-13,78,73,71,72,70,68,95,89,80,30.06,29.98,8,5,15,0.15
2013-5-14,81,76,71,72,70,68,92,80,68,30.09,30.00,10,6,21,0.02
2013-5-15,81,76,73,71,69,68,87,79,67,30.12,30.04,9,6,19,0.00
2013-5-16,80,75,71,71,68,66,90,77,69,30.10,30.02,10,6,15,0.21
2013-5-17,82,76,71,70,67,65,87,75,61,30.06,29.96,9,6,15,0.02
2013-5-18,82,76,71,70,67,64,85,75,60,30.01,29.93,7,3,11,0.01
2013-5-19,80,75,68,71,68,63,94,79,69,29.98,29.88,7,3,11,0.72
2013-5-20,78,73,67,69,66,63,94,81,71,29.97,29.89,7,2,12,0.00
2013-5-21,83,75,68,70,67,63,88,77,64,29.99,29.90,4,1,6,0.00
2013-5-22,82,17,71,72,-63,-100,84,16,69,30.03,29.91,5,-782,8,0.00
2013-5-23,84,22,77,73,-54,-100,80,19,66,30.04,29.95,7,-731,15,0.00
2013-5-24,83,40,75,72,-14,-100,87,36,63,30.05,29.97,9,-487,19,0.01
2013-5-25,81,41,72,72,-9,-100,88,42,68,30.06,29.98,10,-460,15,0.03
2013-5-26,81,40,74,71,-14,-100,80,36,65,30.07,29.98,10,-487,23,0.00
2013-5-27,82,40,72,70,-14,-100,85,37,63,30.08,30.00,10,-484,19,0.00
2013-5-28,83,41,74,72,-12,-100,82,37,66,30.08,30.00,8,-482,14,0.00
2013-5-29,84,41,75,72,-15,-100,79,34,63,30.06,29.98,8,-491,14,0.00
2013-5-30,83,40,76,72,-15,-100,84,36,65,30.03,29.93,8,-500,13,0.00
2013-5-31,80,40,73,73,-12,-100,90,41,72,30.03,29.92,9,-482,15,0.02
2013-6-1,83,41,76,73,-12,-100,82,39,69,30.07,29.97,9,-484,15,0.00
2013-6-2,81,38,73,73,-17,-100,93,39,67,30.07,30.00,12,-508,22,0.05
2013-6-3,82,38,73,71,-19,-100,84,34,65,30.08,29.99,10,-518,18,0.00
2013-6-4,83,40,75,72,-15,-100,80,36,52,30.04,29.96,11,-490,17,0.00
2013-6-5,81,39,74,71,-15,-100,83,37,67,30.03,29.96,12,-490,19,0.00
2013-6-6,81,41,72,70,-12,-100,82,36,63,30.04,29.93,9,-472,18,0.00
2013-6-7,81,39,72,69,-16,-100,78,35,59,30.03,29.94,10,-490,14,0.00
2013-6-8,82,41,73,71,-13,-100,81,36,65,30.04,29.96,9,-480,18,0.00
2013-6-9,82,40,71,71,-13,-100,90,38,64,30.06,29.98,7,-485,15,0.08
2013-6-10,82,41,74,71,-12,-100,84,39,67,30.04,29.98,8,-475,16,0.01
2013-6-11,84,39,75,70,-17,-100,81,33,57,30.02,29.94,11,-506,14,0.00
2013-6-12,82,41,75,72,-13,-100,78,37,65,30.07,29.97,10,-480,18,0.00
2013-6-13,81,40,74,72,-13,-100,86,39,69,30.08,30.01,10,-486,19,0.00
2013-6-14,80,40,73,71,-14,-100,88,38,69,30.07,29.97,10,-486,17,0.01
2013-6-15,81,40,71,70,-13,-100,89,38,67,30.01,29.92,8,-481,15,0.01
2013-6-16,82,40,74,70,-15,-100,83,35,59,30.01,29.92,9,-490,16,0.00
2013-6-17,81,40,73,71,-14,-100,88,38,69,30.07,29.95,9,-490,14,0.02
2013-6-18,74,1,74,69,-98,-100,83,1,82,30.05,29.98,6,-986,6,0.00
2013-6-19,83,41,76,69,-14,-100,76,33,59,30.05,29.98,11,-484,15,0.00
2013-6-20,84,43,72,71,-9,-100,89,38,59,30.04,29.96,8,-461,14,0.00
2013-6-21,81,41,73,72,-10,-100,91,42,69,30.04,29.96,8,-467,18,0.01
2013-6-22,81,40,74,72,-13,-100,83,38,66,30.08,29.97,10,-480,18,0.00
2013-6-23,82,41,73,71,-11,-100,82,39,68,30.10,30.02,8,-472,14,0.00
2013-6-24,83,40,74,70,-15,-100,76,35,60,30.09,30.02,8,-490,13,0.00
2013-6-25,77,36,71,72,-17,-100,94,43,81,30.06,29.99,9,-512,17,0.10
2013-6-26,81,38,72,72,-18,-100,86,37,70,30.05,29.97,9,-512,15,0.00
2013-6-27,82,41,73,71,-13,-100,83,35,63,30.01,29.94,7,-481,14,0.00
2013-6-28,81,39,73,73,-15,-100,91,38,66,29.99,29.92,8,-494,15,0.05
2013-6-29,82,38,72,71,-17,-100,84,37,68,30.00,29.91,8,-509,19,0.00
2013-6-30,83,42,74,70,-12,-100,84,35,59,30.02,29.94,7,-478,14,0.00
2013-7-1,83,52,73,72,13,-100,88,52,62,30.00,29.94,8,-322,14,0.04
2013-7-2,81,76,71,71,68,65,84,77,65,29.98,29.90,9,4,15,0.00
2013-7-3,83,77,73,72,68,65,88,75,58,29.98,29.90,7,3,14,0.02
2013-7-4,83,77,71,72,68,66,89,75,61,30.02,29.93,7,3,15,0.01
2013-7-5,81,76,71,71,68,65,83,77,70,30.01,29.94,9,4,15,0.00
2013-7-6,82,76,71,71,68,64,83,76,65,30.00,29.93,8,3,16,0.00
2013-7-7,84,77,71,72,68,64,84,75,64,29.98,29.88,7,3,15,0.00
2013-7-8,85,78,72,72,70,66,90,77,62,30.02,29.89,9,4,17,0.02
2013-7-9,85,79,75,72,70,68,83,75,64,30.11,29.97,10,6,19,0.00
2013-7-10,83,77,73,72,69,66,88,77,64,30.12,30.06,9,6,18,0.03
2013-7-11,82,76,70,71,68,66,91,78,65,30.08,29.99,10,6,27,0.08
2013-7-12,82,77,72,71,68,66,84,76,64,30.04,29.94,10,5,16,0.00
2013-7-13,84,77,71,69,67,65,84,72,54,30.00,29.91,9,5,17,0.00
2013-7-14,84,78,72,69,66,64,80,69,52,29.98,29.89,9,4,16,0.00
2013-7-15,85,77,71,71,67,66,85,72,57,29.99,29.91,9,5,18,0.01
2013-7-16,84,78,73,70,68,64,81,71,56,29.98,29.89,9,6,17,0.00
2013-7-17,84,78,73,70,67,62,85,70,57,29.99,29.91,10,6,20,0.02
2013-7-18,84,77,73,73,69,67,84,76,63,30.02,29.93,7,4,13,0.02
2013-7-19,85,78,73,72,70,67,84,75,61,30.05,29.96,8,4,14,0.00
2013-7-20,84,78,73,71,68,67,84,74,62,30.04,29.96,8,4,13,0.00
2013-7-21,84,77,73,71,68,66,90,74,55,30.00,29.92,8,4,18,0.01
2013-7-22,84,77,73,76,72,70,94,86,73,29.98,29.88,6,2,10,0.20
2013-7-23,85,79,75,74,72,70,90,78,68,30.00,29.92,9,3,17,0.01
2013-7-24,84,78,74,72,69,68,89,76,64,29.98,29.89,9,4,19,0.00
2013-7-25,84,78,73,70,68,67,86,73,58,29.97,29.90,7,4,17,0.00
2013-7-26,84,77,71,72,69,67,91,78,63,30.03,29.91,7,4,13,0.08
2013-7-27,84,78,73,71,68,64,85,73,58,30.02,29.93,9,4,15,0.00
2013-7-28,83,77,71,73,70,65,94,80,63,29.99,29.91,8,3,17,0.09
2013-7-29,81,77,74,76,73,68,95,89,72,29.93,29.74,11,4,14,0.70
2013-7-30,85,79,74,76,72,68,86,79,70,30.07,29.93,12,4,18,0.00
2013-7-31,84,79,76,72,70,68,85,74,62,30.08,29.99,13,7,25,0.00
2013-8-1,84,79,73,70,69,67,87,73,62,30.05,29.98,9,6,15,0.01
2013-8-2,83,78,73,72,69,67,85,75,64,30.03,29.95,9,4,13,0.01
2013-8-3,83,78,73,71,69,67,88,75,63,30.02,29.94,8,4,17,0.06
2013-8-4,84,77,71,72,69,67,89,78,62,30.01,29.92,8,4,14,0.04
2013-8-5,84,77,72,73,71,68,92,81,66,30.00,29.91,9,4,17,0.18
2013-8-6,83,78,74,71,69,68,83,75,62,30.01,29.93,7,4,15,0.00
2013-8-7,84,78,73,70,68,67,83,74,59,30.04,29.96,7,4,13,0.00
2013-8-8,84,78,72,72,69,67,84,75,63,30.05,29.96,9,4,12,0.00
2013-8-9,84,76,72,75,70,67,95,83,63,30.03,29.93,11,5,19,0.68
2013-8-10,82,76,72,74,72,71,96,88,75,30.00,29.92,11,6,22,1.12
2013-8-11,84,78,74,75,72,70,92,82,71,30.01,29.95,9,6,18,0.04
2013-8-12,82,78,75,71,70,67,83,76,67,30.05,29.97,9,6,15,0.00
2013-8-13,84,78,74,72,70,67,85,76,60,30.02,29.94,8,5,15,0.00
2013-8-14,83,78,74,71,69,67,82,74,61,30.01,29.91,10,6,18,0.00
2013-8-15,84,78,74,71,69,67,83,75,59,30.01,29.94,10,5,15,0.00
2013-8-16,82,77,73,72,70,67,86,79,71,30.02,29.94,9,5,19,0.01
2013-8-17,82,78,74,70,68,65,80,72,62,30.01,29.92,11,6,17,0.00
2013-8-18,84,78,75,72,69,67,81,73,63,30.01,29.92,8,4,14,0.00
2013-8-19,82,77,72,71,68,65,81,74,62,30.00,29.92,7,3,11,0.00
2013-8-20,86,78,72,72,70,66,91,76,61,29.97,29.88,6,2,11,0.00
2013-8-21,85,78,72,73,70,66,84,76,64,29.96,29.87,6,2,13,0.00
2013-8-22,86,80,75,73,71,69,85,74,58,29.97,29.88,7,3,12,0.00
2013-8-23,85,78,72,72,70,68,92,76,60,29.98,29.89,8,4,12,0.01
2013-8-24,84,78,74,72,70,68,84,75,61,30.02,29.92,8,4,15,0.00
2013-8-25,84,79,75,73,70,68,87,75,62,30.05,29.97,9,5,16,0.01
2013-8-26,84,79,76,72,70,68,82,74,60,30.07,30.00,9,6,17,0.00
2013-8-27,84,78,74,71,69,66,86,73,59,30.07,29.98,7,5,15,0.01
2013-8-28,82,78,73,72,70,67,88,78,65,30.00,29.89,8,4,12,0.02
2013-8-29,84,78,71,72,70,67,89,78,66,29.94,29.86,7,3,12,0.02
2013-8-30,84,78,72,74,70,67,90,77,65,30.01,29.91,7,3,13,0.06
2013-8-31,84,78,72,72,70,67,91,77,60,30.02,29.91,10,5,14,0.12
2013-9-1,83,78,74,72,68,65,81,73,64,30.00,29.91,8,4,22,0.01
2013-9-2,84,78,73,71,69,67,88,75,64,30.01,29.92,8,4,15,0.05
2013-9-3,83,78,72,71,69,66,83,75,62,30.00,29.92,7,3,15,0.00
2013-9-4,83,76,70,71,68,65,90,78,65,30.01,29.93,10,2,14,0.01
2013-9-5,84,77,71,71,68,65,83,72,58,30.07,29.96,8,2,12,0.00
2013-9-6,84,77,71,72,69,65,92,77,60,30.05,29.98,8,3,12,0.18
2013-9-7,84,78,73,75,72,70,93,83,70,30.02,29.92,9,4,15,0.28
2013-9-8,85,79,74,73,71,69,91,77,63,30.04,29.95,9,5,15,0.13
2013-9-9,84,79,74,72,70,67,82,74,61,30.06,29.96,8,4,15,0.00
2013-9-10,84,78,72,73,71,68,89,79,67,30.04,29.95,8,4,14,0.10
2013-9-11,84,78,74,74,71,69,87,81,69,30.06,29.95,8,3,13,0.03
2013-9-12,83,78,74,75,72,68,91,82,73,29.99,29.89,8,3,14,0.08
2013-9-13,85,79,74,74,71,69,90,78,65,29.92,29.83,8,4,17,0.06
2013-9-14,85,79,75,74,71,68,90,78,64,29.92,29.83,7,3,13,0.00
2013-9-15,85,79,74,73,70,69,90,76,64,29.96,29.86,9,4,14,0.01
2013-9-16,84,79,76,73,71,68,84,76,66,30.02,29.93,9,5,16,0.00
2013-9-17,83,77,72,74,71,69,93,82,73,30.00,29.92,8,5,17,0.43
2013-9-18,85,78,74,72,70,69,88,76,60,29.98,29.90,9,4,18,0.03
2013-9-19,85,79,75,72,70,68,84,75,62,30.02,29.91,8,5,12,0.00
2013-9-20,83,78,74,73,70,66,84,76,63,30.02,29.95,9,5,16,0.01
2013-9-21,83,77,72,72,69,67,87,76,67,30.00,29.91,9,5,19,0.07
2013-9-22,84,77,72,73,70,67,90,78,66,30.00,29.92,7,4,17,0.13
2013-9-23,85,78,72,73,70,68,90,77,66,29.99,29.90,8,4,14,0.01
2013-9-24,82,76,72,74,70,68,93,82,69,30.00,29.90,7,3,15,0.37
2013-9-25,83,76,71,74,70,67,93,81,65,30.02,29.92,7,3,13,0.19
2013-9-26,85,78,72,71,69,67,87,74,60,29.97,29.90,7,3,14,0.00
2013-9-27,84,78,74,72,70,68,82,75,63,30.05,29.92,10,5,14,0.00
2013-9-28,83,77,73,72,70,68,89,78,66,30.06,29.97,10,5,15,0.08
2013-9-29,83,78,74,72,69,67,83,76,65,30.03,29.91,7,4,14,0.00
2013-9-30,83,78,73,72,69,67,87,76,63,30.01,29.92,10,4,16,0.02
2013-10-1,84,78,74,72,70,66,85,76,66,29.98,29.89,10,5,20,0.00
2013-10-2,84,78,75,71,69,68,83,74,62,29.96,29.86,10,5,17,0.00
2013-10-3,84,78,75,71,69,66,78,73,61,29.95,29.87,9,5,18,0.00
2013-10-4,83,77,72,72,69,66,90,77,62,29.99,29.90,9,4,19,0.02
2013-10-5,82,76,71,71,69,67,91,78,64,29.98,29.89,9,4,20,0.19
2013-10-6,81,77,73,72,69,66,87,78,69,29.98,29.89,9,4,14,0.02
2013-10-7,82,78,75,71,69,67,85,76,65,30.03,29.92,9,5,16,0.01
2013-10-8,82,77,75,72,69,66,83,76,65,30.05,29.95,10,5,19,0.00
2013-10-9,82,77,73,72,69,68,86,77,68,30.02,29.92,8,5,16,0.04
2013-10-10,84,78,72,71,69,68,89,76,60,29.98,29.88,8,4,15,0.01
2013-10-11,85,78,72,74,71,67,87,78,66,30.00,29.89,5,1,12,0.00
2013-10-12,84,78,73,75,71,68,88,80,72,29.99,29.90,6,2,10,0.00
2013-10-13,84,78,72,74,71,68,90,79,65,29.97,29.88,6,2,12,0.00
2013-10-14,85,77,71,73,69,65,85,77,63,29.95,29.86,6,2,10,0.00
2013-10-15,83,77,71,73,69,66,85,78,65,29.96,29.86,6,2,13,0.00
2013-10-16,83,77,72,71,69,66,87,76,62,29.97,29.87,8,3,16,0.02
2013-10-17,84,77,70,74,70,65,85,79,66,29.97,29.88,7,1,8,0.00
2013-10-18,85,78,72,74,70,66,86,78,67,29.94,29.83,4,1,9,0.00
2013-10-19,85,78,71,73,70,66,86,77,58,29.89,29.80,6,2,12,0.00
2013-10-20,83,77,72,74,70,65,84,79,70,29.93,29.83,5,1,8,0.00
2013-10-21,81,76,72,70,68,66,84,75,61,29.96,29.87,7,2,9,0.00
2013-10-22,82,77,72,72,69,66,81,77,68,29.97,29.89,8,4,11,0.00
2013-10-23,84,77,73,72,69,67,88,76,58,29.99,29.89,7,3,13,0.04
2013-10-24,83,77,70,71,69,65,88,77,62,29.97,29.86,7,3,12,0.01
2013-10-25,84,78,71,73,69,64,85,75,57,29.98,29.88,7,2,14,0.00
2013-10-26,86,79,73,75,71,67,84,77,61,30.01,29.91,5,1,11,0.00
2013-10-27,84,78,73,74,71,67,86,79,68,30.01,29.91,7,2,11,0.00
2013-10-28,84,78,74,73,70,67,85,76,65,30.02,29.91,7,3,14,0.00
2013-10-29,82,77,74,71,69,68,83,76,66,30.04,29.94,7,3,15,0.02
2013-10-30,82,76,71,73,70,67,89,81,69,30.06,29.97,6,3,13,0.05
2013-10-31,84,78,73,72,69,66,83,76,62,30.07,29.99,7,4,13,0.00
2013-11-1,80,76,73,72,70,66,88,81,75,30.06,29.95,7,4,16,0.13
2013-11-2,81,77,74,71,69,67,84,76,67,30.05,29.95,9,6,16,0.00
2013-11-3,82,77,75,70,68,66,79,72,65,30.04,29.94,10,6,17,0.00
2013-11-4,82,76,73,71,69,67,87,78,68,30.01,29.91,8,4,13,0.11
2013-11-5,81,76,72,73,69,66,90,80,69,29.98,29.88,6,2,11,0.01
2013-11-6,82,76,71,71,68,66,89,77,63,29.96,29.84,6,2,11,0.01
2013-11-7,84,78,71,74,69,65,84,76,63,29.96,29.85,6,2,12,0.00
2013-11-8,83,78,74,73,70,67,86,77,66,29.96,29.83,8,3,12,0.00
2013-11-9,79,74,69,72,69,66,94,87,78,29.90,29.79,9,3,13,0.87
2013-11-10,76,72,68,71,67,64,94,85,71,29.96,29.82,13,6,15,0.50
2013-11-11,78,73,70,66,63,60,83,69,59,29.97,29.86,11,5,14,0.03
2013-11-12,78,73,68,64,62,59,76,69,60,29.98,29.88,7,3,11,0.00
2013-11-13,80,74,69,69,66,62,90,76,65,29.99,29.88,5,2,11,0.16
2013-11-14,77,73,68,72,69,66,94,88,82,29.99,29.88,5,2,9,0.60
2013-11-15,81,78,74,74,71,67,92,81,69,30.02,29.94,7,3,13,0.00
2013-11-16,81,77,73,72,69,67,84,78,70,30.02,29.92,7,3,11,0.00
2013-11-17,84,78,72,72,69,65,82,75,63,29.97,29.86,4,1,6,0.00
2013-11-18,81,76,70,72,68,64,88,77,68,29.95,29.85,5,1,9,0.00
2013-11-19,83,76,69,72,69,65,90,79,64,29.96,29.84,4,1,6,0.00
2013-11-20,82,76,70,73,68,63,86,78,68,29.97,29.87,3,0,5,0.00
2013-11-21,81,76,72,73,69,64,87,80,67,30.01,29.89,5,1,7,0.00
2013-11-22,79,75,70,72,69,66,89,82,76,30.01,29.92,7,3,11,0.00
2013-11-23,78,75,71,69,65,60,81,72,64,30.00,29.88,8,5,12,0.00
2013-11-24,79,73,69,66,62,58,77,69,56,29.98,29.86,7,3,15,0.00
2013-11-25,79,75,71,67,65,64,79,72,60,30.05,29.92,6,3,14,0.00
2013-11-26,78,75,74,69,67,65,81,76,71,30.07,29.96,7,4,13,0.00
2013-12-2,82,77,71,72,69,65,83,77,67,29.99,29.88,4,1,14,0.00
2013-12-3,82,75,69,70,67,63,85,75,63,29.97,29.83,6,2,7,0.00
2013-12-4,82,75,69,68,64,60,80,70,55,29.97,29.84,6,3,12,0.00
2013-12-5,82,75,69,70,66,63,87,75,58,29.99,29.87,4,1,6,0.00
2013-12-6,81,74,69,70,67,64,88,78,61,29.99,29.87,6,2,12,0.00
2013-12-7,81,75,69,72,67,63,84,77,66,29.96,29.86,5,1,9,0.00
2013-12-8,86,77,72,74,69,64,86,77,56,30.02,29.89,5,1,12,0.00
2013-12-9,83,77,72,74,71,68,87,83,72,30.06,29.94,6,2,11,0.00
2013-12-10,80,76,71,71,69,67,91,80,68,30.03,29.92,8,5,13,0.05
2013-12-11,80,75,72,70,67,63,92,78,66,30.01,29.92,8,4,16,0.02
2013-12-12,81,75,68,71,66,61,84,75,64,30.04,29.90,9,3,20,0.01
2013-12-13,82,76,73,71,67,65,83,76,67,30.04,29.92,7,4,14,0.00
2013-12-14,82,75,70,69,65,63,81,72,61,29.98,29.86,5,2,10,0.00
2013-12-15,79,72,67,68,65,62,86,78,62,29.95,29.81,6,0,9,0.00
2013-12-16,79,73,68,70,67,63,89,80,68,29.98,29.86,6,2,10,0.00
2013-12-17,79,73,69,68,66,63,86,78,68,30.01,29.92,7,3,11,0.00
2013-12-18,78,72,69,70,66,64,88,82,72,30.02,29.92,6,2,10,0.05
2013-12-19,79,73,67,70,67,64,93,81,68,30.03,29.93,9,4,17,1.70
2013-12-20,79,75,70,71,68,62,84,79,72,30.03,29.92,7,3,12,0.00
2013-12-21,80,74,70,71,68,65,88,81,70,29.99,29.90,6,2,9,0.01
2013-12-22,78,73,68,70,67,62,88,81,73,29.98,29.89,6,2,12,0.00
2013-12-24,79,76,73,70,68,66,80,77,71,30.04,29.94,8,5,15,0.09
2013-12-25,79,74,71,70,67,65,85,79,70,30.03,29.93,7,4,14,0.01
2013-12-26,78,74,70,69,67,65,86,78,69,30.00,29.88,8,5,13,0.00
2013-12-27,77,73,69,70,67,64,91,82,73,29.98,29.84,9,5,17,0.21
2013-12-28,77,73,69,72,69,66,93,88,83,29.95,29.81,11,4,18,0.47
2013-12-29,77,74,71,70,67,65,92,80,72,29.99,29.88,11,6,16,0.19
2013-12-30,76,72,68,68,66,64,89,79,69,29.99,29.90,7,4,13,0.00
2013-12-31,78,74,70,69,66,64,86,79,69,29.99,29.88,6,3,11,0.00
2014-1-1,79,73,68,71,67,63,88,82,71,29.94,29.83,5,1,6,0.00
2014-1-2,83,75,68,71,68,63,87,78,64,29.88,29.72,7,2,16,0.00